メインページ
METAR-TAF:

METAR-TAF

空港 :

Revelstoke, ブリティッシュコロンビア州, カナダ

緯度: 50-58N, 経度: 118-11W, 海抜: 443m

現時点の気象観測

当レポートは37分前の02:00(UTC)に作成
西/北西の風 4kt、西/南西からの間で変化する
気温 10°C
湿度 62%
気圧 1019 hPa
視程: 14.5km
高度23000ftの雲はほとんどない

METAR: CYRV 200200Z AUTO 30004KT 250V350 9SM FEW230 10/03 A3009 RMK SLP204

時間: 19:37 (02:37 UTC)


TAF: 見つかりません

4,000以上の空港の気象観測と天気予報(METAR報とTAF報)

利用可能な観測所は地図上に黄色い丸と赤い丸で示す。

丸の上にカーソルを重ねると観測所名を参照できる。

次にクリックすると気象観測と天気予報を参照できる。

マップの切り替え:黒色「×」印の緑ボタンをクリックして拡大、「-」印の緑ボタンをクリックして縮小、緑色の三角印をクリックして隣りの地図に切り替え


METAR-TAF: